sensor_id;sensor_type;location;lat;lon;timestamp;temperature;humidity
7894;DHT22;51343;51.396;6.656;2023-09-18T02:56:10;19.30;90.20
7894;DHT22;51343;51.396;6.656;2023-09-18T02:58:37;19.30;82.70
7894;DHT22;51343;51.396;6.656;2023-09-18T03:01:04;19.40;63.20
7894;DHT22;51343;51.396;6.656;2023-09-18T03:03:37;19.40;59.20
7894;DHT22;51343;51.396;6.656;2023-09-18T03:06:09;19.60;33.80
7894;DHT22;51343;51.396;6.656;2023-09-18T03:08:36;19.50;30.70
7894;DHT22;51343;51.396;6.656;2023-09-18T03:11:07;19.60;20.80
7894;DHT22;51343;51.396;6.656;2023-09-18T03:13:42;19.70;2.70
7894;DHT22;51343;51.396;6.656;2023-09-18T03:16:10;19.80;1.00
7894;DHT22;51343;51.396;6.656;2023-09-18T03:18:40;19.80;1.00
7894;DHT22;51343;51.396;6.656;2023-09-18T03:21:10;19.80;1.00
7894;DHT22;51343;51.396;6.656;2023-09-18T03:23:39;19.80;1.00
7894;DHT22;51343;51.396;6.656;2023-09-18T03:26:08;19.80;1.00
7894;DHT22;51343;51.396;6.656;2023-09-18T03:28:42;19.80;1.00
7894;DHT22;51343;51.396;6.656;2023-09-18T03:31:16;20.00;1.00
7894;DHT22;51343;51.396;6.656;2023-09-18T03:33:45;20.00;1.00
7894;DHT22;51343;51.396;6.656;2023-09-18T03:36:14;20.10;1.00
7894;DHT22;51343;51.396;6.656;2023-09-18T03:38:44;20.20;1.00
7894;DHT22;51343;51.396;6.656;2023-09-18T03:44:47;20.30;1.00
7894;DHT22;51343;51.396;6.656;2023-09-18T03:47:14;20.50;1.00
7894;DHT22;51343;51.396;6.656;2023-09-18T03:49:44;20.50;1.00
7894;DHT22;51343;51.396;6.656;2023-09-18T03:52:13;20.50;1.00
7894;DHT22;51343;51.396;6.656;2023-09-18T03:54:46;20.50;1.00
7894;DHT22;51343;51.396;6.656;2023-09-18T03:57:13;20.50;1.00
7894;DHT22;51343;51.396;6.656;2023-09-18T03:59:45;20.40;1.00
7894;DHT22;51343;51.396;6.656;2023-09-18T04:02:13;20.50;1.00
7894;DHT22;51343;51.396;6.656;2023-09-18T04:04:43;20.40;1.00
7894;DHT22;51343;51.396;6.656;2023-09-18T04:07:10;20.40;1.00
7894;DHT22;51343;51.396;6.656;2023-09-18T04:09:44;20.40;1.00
7894;DHT22;51343;51.396;6.656;2023-09-18T04:12:13;20.40;1.00
7894;DHT22;51343;51.396;6.656;2023-09-18T04:14:52;20.50;1.00
7894;DHT22;51343;51.396;6.656;2023-09-18T04:17:19;20.50;1.00
7894;DHT22;51343;51.396;6.656;2023-09-18T04:19:50;20.50;1.00
7894;DHT22;51343;51.396;6.656;2023-09-18T04:22:17;20.50;1.00
7894;DHT22;51343;51.396;6.656;2023-09-18T04:24:46;20.50;1.00
7894;DHT22;51343;51.396;6.656;2023-09-18T04:27:14;20.40;1.00
7894;DHT22;51343;51.396;6.656;2023-09-18T04:29:42;20.40;1.00
7894;DHT22;51343;51.396;6.656;2023-09-18T04:32:18;20.30;1.00
7894;DHT22;51343;51.396;6.656;2023-09-18T04:34:48;20.30;1.00
7894;DHT22;51343;51.396;6.656;2023-09-18T04:37:21;20.20;1.00
7894;DHT22;51343;51.396;6.656;2023-09-18T04:40:06;20.20;1.00
7894;DHT22;51343;51.396;6.656;2023-09-18T04:42:47;20.20;1.00
7894;DHT22;51343;51.396;6.656;2023-09-18T04:45:20;20.10;1.00
7894;DHT22;51343;51.396;6.656;2023-09-18T04:47:51;20.20;1.00
7894;DHT22;51343;51.396;6.656;2023-09-18T04:50:26;20.20;1.00
7894;DHT22;51343;51.396;6.656;2023-09-18T04:52:55;20.30;1.00
7894;DHT22;51343;51.396;6.656;2023-09-18T04:55:24;20.30;1.00
7894;DHT22;51343;51.396;6.656;2023-09-18T04:57:51;20.40;1.00
7894;DHT22;51343;51.396;6.656;2023-09-18T05:00:19;20.40;1.00
7894;DHT22;51343;51.396;6.656;2023-09-18T05:02:48;20.30;1.00
7894;DHT22;51343;51.396;6.656;2023-09-18T05:05:20;20.30;1.00
7894;DHT22;51343;51.396;6.656;2023-09-18T05:07:50;20.30;1.00
7894;DHT22;51343;51.396;6.656;2023-09-18T05:10:17;20.40;1.00
7894;DHT22;51343;51.396;6.656;2023-09-18T05:12:44;20.40;1.00
7894;DHT22;51343;51.396;6.656;2023-09-18T05:15:14;20.30;1.00
7894;DHT22;51343;51.396;6.656;2023-09-18T05:18:04;20.30;1.00
7894;DHT22;51343;51.396;6.656;2023-09-18T05:23:45;20.20;1.00
7894;DHT22;51343;51.396;6.656;2023-09-18T05:26:18;20.20;1.00
7894;DHT22;51343;51.396;6.656;2023-09-18T05:28:55;20.10;1.00
7894;DHT22;51343;51.396;6.656;2023-09-18T05:31:30;20.20;1.00
7894;DHT22;51343;51.396;6.656;2023-09-18T05:34:02;20.20;1.00
7894;DHT22;51343;51.396;6.656;2023-09-18T05:36:32;20.30;1.00
7894;DHT22;51343;51.396;6.656;2023-09-18T05:39:07;20.30;1.00
7894;DHT22;51343;51.396;6.656;2023-09-18T06:05:25;20.20;1.00
7894;DHT22;51343;51.396;6.656;2023-09-18T06:07:52;20.20;1.00
7894;DHT22;51343;51.396;6.656;2023-09-18T06:10:19;20.30;1.00
7894;DHT22;51343;51.396;6.656;2023-09-18T06:12:47;20.30;1.00
7894;DHT22;51343;51.396;6.656;2023-09-18T06:15:20;20.30;1.00
7894;DHT22;51343;51.396;6.656;2023-09-18T06:18:03;20.30;1.00
7894;DHT22;51343;51.396;6.656;2023-09-18T06:20:37;20.40;1.00
7894;DHT22;51343;51.396;6.656;2023-09-18T06:23:10;20.40;1.00
7894;DHT22;51343;51.396;6.656;2023-09-18T06:25:51;20.40;1.00
7894;DHT22;51343;51.396;6.656;2023-09-18T06:28:25;20.40;1.00
7894;DHT22;51343;51.396;6.656;2023-09-18T06:33:53;20.40;1.00
7894;DHT22;51343;51.396;6.656;2023-09-18T06:39:20;20.40;1.00
7894;DHT22;51343;51.396;6.656;2023-09-18T06:41:56;20.40;1.00
7894;DHT22;51343;51.396;6.656;2023-09-18T06:44:31;20.40;1.00
7894;DHT22;51343;51.396;6.656;2023-09-18T06:47:02;20.40;1.00
7894;DHT22;51343;51.396;6.656;2023-09-18T06:49:31;20.40;1.00
7894;DHT22;51343;51.396;6.656;2023-09-18T06:52:11;20.40;1.00
7894;DHT22;51343;51.396;6.656;2023-09-18T06:54:41;20.40;1.00
7894;DHT22;51343;51.396;6.656;2023-09-18T06:57:22;20.40;1.00
7894;DHT22;51343;51.396;6.656;2023-09-18T07:00:00;20.50;1.00
7894;DHT22;51343;51.396;6.656;2023-09-18T07:02:44;20.50;1.00
7894;DHT22;51343;51.396;6.656;2023-09-18T07:05:21;20.60;1.00
7894;DHT22;51343;51.396;6.656;2023-09-18T07:07:51;20.50;99.90
7894;DHT22;51343;51.396;6.656;2023-09-18T07:10:21;20.60;1.00
7894;DHT22;51343;51.396;6.656;2023-09-18T07:12:52;20.60;99.90
7894;DHT22;51343;51.396;6.656;2023-09-18T07:15:19;20.70;99.90
7894;DHT22;51343;51.396;6.656;2023-09-18T07:17:49;20.70;1.00
7894;DHT22;51343;51.396;6.656;2023-09-18T07:20:20;20.70;99.90
7894;DHT22;51343;51.396;6.656;2023-09-18T07:22:49;20.70;1.00
7894;DHT22;51343;51.396;6.656;2023-09-18T07:25:25;20.70;1.00
7894;DHT22;51343;51.396;6.656;2023-09-18T07:28:06;20.80;1.00
7894;DHT22;51343;51.396;6.656;2023-09-18T07:30:42;20.80;1.00
7894;DHT22;51343;51.396;6.656;2023-09-18T07:39:25;20.80;99.90
7894;DHT22;51343;51.396;6.656;2023-09-18T07:42:09;20.80;1.00
7894;DHT22;51343;51.396;6.656;2023-09-18T07:44:49;20.80;99.90
7894;DHT22;51343;51.396;6.656;2023-09-18T07:47:16;20.80;1.00
7894;DHT22;51343;51.396;6.656;2023-09-18T07:52:29;20.80;99.90
7894;DHT22;51343;51.396;6.656;2023-09-18T07:54:58;20.80;1.00
7894;DHT22;51343;51.396;6.656;2023-09-18T07:57:43;20.80;1.00
7894;DHT22;51343;51.396;6.656;2023-09-18T08:00:19;20.90;1.00
7894;DHT22;51343;51.396;6.656;2023-09-18T08:02:48;20.90;1.00
7894;DHT22;51343;51.396;6.656;2023-09-18T08:05:15;20.90;1.00
7894;DHT22;51343;51.396;6.656;2023-09-18T08:07:43;21.00;99.90
7894;DHT22;51343;51.396;6.656;2023-09-18T08:10:16;21.00;99.90
7894;DHT22;51343;51.396;6.656;2023-09-18T08:15:35;21.00;99.90
7894;DHT22;51343;51.396;6.656;2023-09-18T08:18:15;21.00;99.90
7894;DHT22;51343;51.396;6.656;2023-09-18T08:20:42;21.00;99.90
7894;DHT22;51343;51.396;6.656;2023-09-18T08:26:17;21.20;1.00
7894;DHT22;51343;51.396;6.656;2023-09-18T08:28:47;21.30;1.00
7894;DHT22;51343;51.396;6.656;2023-09-18T08:31:18;21.40;1.00
7894;DHT22;51343;51.396;6.656;2023-09-18T08:33:52;21.40;99.90
7894;DHT22;51343;51.396;6.656;2023-09-18T08:36:21;21.40;99.90
7894;DHT22;51343;51.396;6.656;2023-09-18T08:39:02;21.50;99.90
7894;DHT22;51343;51.396;6.656;2023-09-18T08:41:31;21.40;99.90
7894;DHT22;51343;51.396;6.656;2023-09-18T08:44:09;21.40;99.90
7894;DHT22;51343;51.396;6.656;2023-09-18T08:46:42;21.40;99.90
7894;DHT22;51343;51.396;6.656;2023-09-18T08:49:25;21.40;99.90
7894;DHT22;51343;51.396;6.656;2023-09-18T08:52:05;21.40;99.90
7894;DHT22;51343;51.396;6.656;2023-09-18T08:55:20;21.40;99.90
7894;DHT22;51343;51.396;6.656;2023-09-18T08:57:49;21.50;99.90
7894;DHT22;51343;51.396;6.656;2023-09-18T09:00:24;21.50;99.90
7894;DHT22;51343;51.396;6.656;2023-09-18T09:05:49;21.60;99.90
7894;DHT22;51343;51.396;6.656;2023-09-18T09:08:18;21.60;8.40
7894;DHT22;51343;51.396;6.656;2023-09-18T09:10:47;21.60;90.90
7894;DHT22;51343;51.396;6.656;2023-09-18T09:13:28;21.60;99.90
7894;DHT22;51343;51.396;6.656;2023-09-18T09:15:57;21.80;1.00
7894;DHT22;51343;51.396;6.656;2023-09-18T09:18:24;21.80;1.00
7894;DHT22;51343;51.396;6.656;2023-09-18T09:20:55;21.90;1.00
7894;DHT22;51343;51.396;6.656;2023-09-18T09:23:44;22.00;1.00
7894;DHT22;51343;51.396;6.656;2023-09-18T09:31:25;21.90;1.00
7894;DHT22;51343;51.396;6.656;2023-09-18T09:33:54;21.90;1.00
7894;DHT22;51343;51.396;6.656;2023-09-18T09:36:23;21.80;1.00
7894;DHT22;51343;51.396;6.656;2023-09-18T09:39:14;21.90;1.00
7894;DHT22;51343;51.396;6.656;2023-09-18T09:44:38;22.10;1.00
7894;DHT22;51343;51.396;6.656;2023-09-18T09:47:13;22.20;1.00
7894;DHT22;51343;51.396;6.656;2023-09-18T09:49:54;22.20;1.00
7894;DHT22;51343;51.396;6.656;2023-09-18T10:00:19;22.10;1.00
7894;DHT22;51343;51.396;6.656;2023-09-18T10:02:56;22.20;1.00
7894;DHT22;51343;51.396;6.656;2023-09-18T10:05:37;22.20;1.00
7894;DHT22;51343;51.396;6.656;2023-09-18T10:08:31;22.20;99.90
7894;DHT22;51343;51.396;6.656;2023-09-18T10:13:36;22.20;99.90
7894;DHT22;51343;51.396;6.656;2023-09-18T10:24:12;22.40;99.90
7894;DHT22;51343;51.396;6.656;2023-09-18T10:26:47;22.80;99.90
7894;DHT22;51343;51.396;6.656;2023-09-18T10:29:14;23.30;99.90
7894;DHT22;51343;51.396;6.656;2023-09-18T10:31:47;23.70;99.90
7894;DHT22;51343;51.396;6.656;2023-09-18T10:34:30;24.10;99.90
7894;DHT22;51343;51.396;6.656;2023-09-18T10:36:59;24.20;99.90
7894;DHT22;51343;51.396;6.656;2023-09-18T10:39:28;24.30;99.90
7894;DHT22;51343;51.396;6.656;2023-09-18T10:42:01;24.50;99.90
7894;DHT22;51343;51.396;6.656;2023-09-18T10:44:32;24.40;99.90
7894;DHT22;51343;51.396;6.656;2023-09-18T10:47:03;24.30;99.90
7894;DHT22;51343;51.396;6.656;2023-09-18T10:49:37;24.40;99.90
7894;DHT22;51343;51.396;6.656;2023-09-18T10:52:04;24.20;99.90
7894;DHT22;51343;51.396;6.656;2023-09-18T10:54:32;24.20;99.90
7894;DHT22;51343;51.396;6.656;2023-09-18T10:57:03;24.00;99.90
7894;DHT22;51343;51.396;6.656;2023-09-18T10:59:32;23.80;99.90
7894;DHT22;51343;51.396;6.656;2023-09-18T11:02:18;23.70;99.90
7894;DHT22;51343;51.396;6.656;2023-09-18T11:07:22;24.20;1.00
7894;DHT22;51343;51.396;6.656;2023-09-18T11:09:51;24.70;1.00
7894;DHT22;51343;51.396;6.656;2023-09-18T11:12:21;25.30;1.00
7894;DHT22;51343;51.396;6.656;2023-09-18T11:15:13;25.60;1.00
7894;DHT22;51343;51.396;6.656;2023-09-18T11:17:58;25.60;1.00
7894;DHT22;51343;51.396;6.656;2023-09-18T11:20:25;25.20;1.00
7894;DHT22;51343;51.396;6.656;2023-09-18T11:22:55;25.40;1.00
7894;DHT22;51343;51.396;6.656;2023-09-18T11:25:31;25.10;1.00
7894;DHT22;51343;51.396;6.656;2023-09-18T11:28:01;24.90;1.00
7894;DHT22;51343;51.396;6.656;2023-09-18T11:30:28;25.20;1.00
7894;DHT22;51343;51.396;6.656;2023-09-18T11:32:56;25.20;1.00
7894;DHT22;51343;51.396;6.656;2023-09-18T11:35:25;25.30;1.00
7894;DHT22;51343;51.396;6.656;2023-09-18T11:38:04;25.10;1.00
7894;DHT22;51343;51.396;6.656;2023-09-18T11:40:51;24.80;1.00
7894;DHT22;51343;51.396;6.656;2023-09-18T11:43:18;24.60;1.00
7894;DHT22;51343;51.396;6.656;2023-09-18T11:45:49;24.90;1.00
7894;DHT22;51343;51.396;6.656;2023-09-18T11:48:15;25.30;1.00
7894;DHT22;51343;51.396;6.656;2023-09-18T11:50:43;25.80;1.00
7894;DHT22;51343;51.396;6.656;2023-09-18T11:53:10;26.20;1.00
7894;DHT22;51343;51.396;6.656;2023-09-18T11:55:38;26.20;1.00
7894;DHT22;51343;51.396;6.656;2023-09-18T11:58:07;26.20;1.00
7894;DHT22;51343;51.396;6.656;2023-09-18T12:00:34;25.90;1.00
7894;DHT22;51343;51.396;6.656;2023-09-18T12:03:12;25.30;1.00
7894;DHT22;51343;51.396;6.656;2023-09-18T12:05:40;25.00;1.00
7894;DHT22;51343;51.396;6.656;2023-09-18T12:08:07;25.30;1.00
7894;DHT22;51343;51.396;6.656;2023-09-18T12:10:34;25.60;1.00
7894;DHT22;51343;51.396;6.656;2023-09-18T12:13:01;25.90;1.00
7894;DHT22;51343;51.396;6.656;2023-09-18T12:15:30;25.60;1.00
7894;DHT22;51343;51.396;6.656;2023-09-18T12:18:04;25.40;1.00
7894;DHT22;51343;51.396;6.656;2023-09-18T12:20:31;25.50;1.00
7894;DHT22;51343;51.396;6.656;2023-09-18T12:22:59;26.00;1.00
7894;DHT22;51343;51.396;6.656;2023-09-18T12:25:28;26.50;1.00
7894;DHT22;51343;51.396;6.656;2023-09-18T12:27:54;26.90;1.00
7894;DHT22;51343;51.396;6.656;2023-09-18T12:30:21;27.10;1.00
7894;DHT22;51343;51.396;6.656;2023-09-18T12:32:50;27.30;1.00
7894;DHT22;51343;51.396;6.656;2023-09-18T12:35:17;27.30;1.00
7894;DHT22;51343;51.396;6.656;2023-09-18T12:37:44;27.70;1.00
7894;DHT22;51343;51.396;6.656;2023-09-18T12:40:20;27.80;1.00
7894;DHT22;51343;51.396;6.656;2023-09-18T12:42:47;28.20;1.00
7894;DHT22;51343;51.396;6.656;2023-09-18T12:45:14;28.50;1.00
7894;DHT22;51343;51.396;6.656;2023-09-18T12:47:41;28.30;1.00
7894;DHT22;51343;51.396;6.656;2023-09-18T12:50:10;28.20;1.00
7894;DHT22;51343;51.396;6.656;2023-09-18T12:52:38;28.20;1.00
7894;DHT22;51343;51.396;6.656;2023-09-18T12:55:05;28.10;1.00
7894;DHT22;51343;51.396;6.656;2023-09-18T12:57:32;28.20;1.00
7894;DHT22;51343;51.396;6.656;2023-09-18T12:59:58;28.20;1.00
7894;DHT22;51343;51.396;6.656;2023-09-18T13:02:28;28.20;1.00
7894;DHT22;51343;51.396;6.656;2023-09-18T13:04:55;28.20;1.00
7894;DHT22;51343;51.396;6.656;2023-09-18T13:07:23;27.90;1.00
7894;DHT22;51343;51.396;6.656;2023-09-18T13:09:58;27.30;1.00
7894;DHT22;51343;51.396;6.656;2023-09-18T13:12:25;27.40;1.00
7894;DHT22;51343;51.396;6.656;2023-09-18T13:15:06;27.00;1.00
7894;DHT22;51343;51.396;6.656;2023-09-18T13:17:38;26.80;1.00
7894;DHT22;51343;51.396;6.656;2023-09-18T13:20:11;26.80;1.00
7894;DHT22;51343;51.396;6.656;2023-09-18T13:22:40;27.00;1.00
7894;DHT22;51343;51.396;6.656;2023-09-18T13:25:07;26.80;1.00
7894;DHT22;51343;51.396;6.656;2023-09-18T13:27:34;27.00;1.00
7894;DHT22;51343;51.396;6.656;2023-09-18T13:30:00;27.40;1.00
7894;DHT22;51343;51.396;6.656;2023-09-18T13:32:33;27.80;1.00
7894;DHT22;51343;51.396;6.656;2023-09-18T13:34:59;28.10;1.00
7894;DHT22;51343;51.396;6.656;2023-09-18T13:37:26;28.20;1.00
7894;DHT22;51343;51.396;6.656;2023-09-18T13:39:55;28.40;1.00
7894;DHT22;51343;51.396;6.656;2023-09-18T13:42:22;28.20;1.00
7894;DHT22;51343;51.396;6.656;2023-09-18T13:44:49;27.80;1.00
7894;DHT22;51343;51.396;6.656;2023-09-18T13:47:15;27.90;1.00
7894;DHT22;51343;51.396;6.656;2023-09-18T13:49:42;28.20;1.00
7894;DHT22;51343;51.396;6.656;2023-09-18T13:52:11;28.20;1.00
7894;DHT22;51343;51.396;6.656;2023-09-18T13:54:38;28.10;1.00
7894;DHT22;51343;51.396;6.656;2023-09-18T13:57:07;28.10;1.00
7894;DHT22;51343;51.396;6.656;2023-09-18T13:59:34;28.20;1.00
7894;DHT22;51343;51.396;6.656;2023-09-18T14:02:01;28.00;1.00
7894;DHT22;51343;51.396;6.656;2023-09-18T14:04:29;28.30;1.00
7894;DHT22;51343;51.396;6.656;2023-09-18T14:06:55;28.40;1.00
7894;DHT22;51343;51.396;6.656;2023-09-18T14:09:22;28.50;1.00
7894;DHT22;51343;51.396;6.656;2023-09-18T14:11:49;28.60;1.00
7894;DHT22;51343;51.396;6.656;2023-09-18T14:14:17;28.50;1.00
7894;DHT22;51343;51.396;6.656;2023-09-18T14:16:43;28.50;1.00
7894;DHT22;51343;51.396;6.656;2023-09-18T14:19:10;28.30;1.00
7894;DHT22;51343;51.396;6.656;2023-09-18T14:21:37;28.10;1.00
7894;DHT22;51343;51.396;6.656;2023-09-18T14:24:04;28.20;1.00
7894;DHT22;51343;51.396;6.656;2023-09-18T14:26:32;28.30;1.00
7894;DHT22;51343;51.396;6.656;2023-09-18T14:29:00;28.60;1.00
7894;DHT22;51343;51.396;6.656;2023-09-18T14:31:28;28.80;1.00
7894;DHT22;51343;51.396;6.656;2023-09-18T14:33:54;28.30;1.00
7894;DHT22;51343;51.396;6.656;2023-09-18T14:36:22;28.10;1.00
7894;DHT22;51343;51.396;6.656;2023-09-18T14:38:49;28.00;1.00
7894;DHT22;51343;51.396;6.656;2023-09-18T14:41:16;28.00;1.00
7894;DHT22;51343;51.396;6.656;2023-09-18T14:43:44;28.10;1.00
7894;DHT22;51343;51.396;6.656;2023-09-18T14:46:10;27.90;1.00
7894;DHT22;51343;51.396;6.656;2023-09-18T14:48:38;27.80;1.00
7894;DHT22;51343;51.396;6.656;2023-09-18T14:51:05;27.80;1.00
7894;DHT22;51343;51.396;6.656;2023-09-18T14:53:32;27.60;1.00
7894;DHT22;51343;51.396;6.656;2023-09-18T14:55:59;27.50;1.00
7894;DHT22;51343;51.396;6.656;2023-09-18T14:58:26;27.50;1.00
7894;DHT22;51343;51.396;6.656;2023-09-18T15:00:53;27.50;1.00
7894;DHT22;51343;51.396;6.656;2023-09-18T15:03:20;27.30;1.00
7894;DHT22;51343;51.396;6.656;2023-09-18T15:05:48;27.10;1.00
7894;DHT22;51343;51.396;6.656;2023-09-18T15:08:16;26.70;1.00
7894;DHT22;51343;51.396;6.656;2023-09-18T15:10:45;26.10;1.00
7894;DHT22;51343;51.396;6.656;2023-09-18T15:13:12;25.90;1.00
7894;DHT22;51343;51.396;6.656;2023-09-18T15:15:39;25.80;1.00
7894;DHT22;51343;51.396;6.656;2023-09-18T15:18:06;25.70;1.00
7894;DHT22;51343;51.396;6.656;2023-09-18T15:20:33;25.60;1.00
7894;DHT22;51343;51.396;6.656;2023-09-18T15:23:02;25.60;1.00
7894;DHT22;51343;51.396;6.656;2023-09-18T15:25:31;25.50;1.00
7894;DHT22;51343;51.396;6.656;2023-09-18T15:28:03;25.30;1.00
7894;DHT22;51343;51.396;6.656;2023-09-18T15:30:30;25.20;1.00
7894;DHT22;51343;51.396;6.656;2023-09-18T15:32:57;25.10;1.00
7894;DHT22;51343;51.396;6.656;2023-09-18T15:35:24;25.00;1.00
7894;DHT22;51343;51.396;6.656;2023-09-18T15:37:51;25.00;1.00
7894;DHT22;51343;51.396;6.656;2023-09-18T15:40:19;24.90;1.00
7894;DHT22;51343;51.396;6.656;2023-09-18T15:42:48;25.00;1.00
7894;DHT22;51343;51.396;6.656;2023-09-18T15:45:15;24.90;1.00
7894;DHT22;51343;51.396;6.656;2023-09-18T15:47:42;24.90;1.00
7894;DHT22;51343;51.396;6.656;2023-09-18T15:50:09;24.70;1.00
7894;DHT22;51343;51.396;6.656;2023-09-18T15:52:39;24.60;1.00
7894;DHT22;51343;51.396;6.656;2023-09-18T15:55:06;24.60;1.00
7894;DHT22;51343;51.396;6.656;2023-09-18T15:57:36;24.50;1.00
7894;DHT22;51343;51.396;6.656;2023-09-18T16:00:04;24.40;1.00
7894;DHT22;51343;51.396;6.656;2023-09-18T16:02:34;24.40;1.00
7894;DHT22;51343;51.396;6.656;2023-09-18T16:05:01;24.30;1.00
7894;DHT22;51343;51.396;6.656;2023-09-18T16:07:37;24.20;1.00
7894;DHT22;51343;51.396;6.656;2023-09-18T16:10:05;24.20;1.00
7894;DHT22;51343;51.396;6.656;2023-09-18T16:12:32;24.20;1.00
7894;DHT22;51343;51.396;6.656;2023-09-18T16:15:06;24.30;1.00
7894;DHT22;51343;51.396;6.656;2023-09-18T16:17:34;24.30;1.00
7894;DHT22;51343;51.396;6.656;2023-09-18T16:20:00;24.20;1.00
7894;DHT22;51343;51.396;6.656;2023-09-18T16:22:29;24.10;1.00
7894;DHT22;51343;51.396;6.656;2023-09-18T16:24:55;24.10;1.00
7894;DHT22;51343;51.396;6.656;2023-09-18T16:27:24;24.10;1.00
7894;DHT22;51343;51.396;6.656;2023-09-18T16:29:51;24.00;1.00
7894;DHT22;51343;51.396;6.656;2023-09-18T16:32:28;23.90;1.00
7894;DHT22;51343;51.396;6.656;2023-09-18T16:34:55;23.80;1.00
7894;DHT22;51343;51.396;6.656;2023-09-18T16:37:21;23.80;1.00
7894;DHT22;51343;51.396;6.656;2023-09-18T16:39:48;23.80;1.00
7894;DHT22;51343;51.396;6.656;2023-09-18T16:42:15;23.70;1.00
7894;DHT22;51343;51.396;6.656;2023-09-18T16:44:42;23.70;1.00
7894;DHT22;51343;51.396;6.656;2023-09-18T16:47:08;23.50;1.00
7894;DHT22;51343;51.396;6.656;2023-09-18T16:49:37;23.50;1.00
7894;DHT22;51343;51.396;6.656;2023-09-18T16:52:05;23.50;1.00
7894;DHT22;51343;51.396;6.656;2023-09-18T16:54:32;23.50;1.00
7894;DHT22;51343;51.396;6.656;2023-09-18T16:56:59;23.50;1.00
7894;DHT22;51343;51.396;6.656;2023-09-18T16:59:29;23.40;1.00
7894;DHT22;51343;51.396;6.656;2023-09-18T17:01:56;23.50;1.00
7894;DHT22;51343;51.396;6.656;2023-09-18T17:04:26;23.50;1.00
7894;DHT22;51343;51.396;6.656;2023-09-18T17:06:57;23.40;1.00
7894;DHT22;51343;51.396;6.656;2023-09-18T17:12:04;23.40;1.00
7894;DHT22;51343;51.396;6.656;2023-09-18T17:14:49;23.40;1.00
7894;DHT22;51343;51.396;6.656;2023-09-18T17:17:16;23.40;1.00
7894;DHT22;51343;51.396;6.656;2023-09-18T17:19:44;23.40;1.00
7894;DHT22;51343;51.396;6.656;2023-09-18T17:22:12;23.30;1.00
7894;DHT22;51343;51.396;6.656;2023-09-18T17:24:38;23.20;1.00
7894;DHT22;51343;51.396;6.656;2023-09-18T17:27:07;23.00;1.00
7894;DHT22;51343;51.396;6.656;2023-09-18T17:29:49;22.60;1.00
7894;DHT22;51343;51.396;6.656;2023-09-18T17:32:16;22.30;1.00
7894;DHT22;51343;51.396;6.656;2023-09-18T17:34:43;22.10;1.00
7894;DHT22;51343;51.396;6.656;2023-09-18T17:37:13;22.00;1.00
7894;DHT22;51343;51.396;6.656;2023-09-18T17:39:40;22.00;1.00
7894;DHT22;51343;51.396;6.656;2023-09-18T17:42:06;22.00;1.00
7894;DHT22;51343;51.396;6.656;2023-09-18T17:44:33;21.90;1.00
7894;DHT22;51343;51.396;6.656;2023-09-18T17:47:04;21.70;1.00
7894;DHT22;51343;51.396;6.656;2023-09-18T17:49:38;21.30;1.00
7894;DHT22;51343;51.396;6.656;2023-09-18T17:52:05;20.90;68.00
7894;DHT22;51343;51.396;6.656;2023-09-18T17:54:35;20.50;99.90
7894;DHT22;51343;51.396;6.656;2023-09-18T17:57:02;20.20;1.00
7894;DHT22;51343;51.396;6.656;2023-09-18T17:59:31;19.90;81.20
7894;DHT22;51343;51.396;6.656;2023-09-18T18:02:00;19.60;97.10
7894;DHT22;51343;51.396;6.656;2023-09-18T19:56:09;17.30;1.00
7894;DHT22;51343;51.396;6.656;2023-09-18T19:58:36;17.20;1.00
7894;DHT22;51343;51.396;6.656;2023-09-18T20:01:02;17.30;1.00
7894;DHT22;51343;51.396;6.656;2023-09-18T20:03:29;17.30;1.00
7894;DHT22;51343;51.396;6.656;2023-09-18T20:05:56;17.30;1.00
7894;DHT22;51343;51.396;6.656;2023-09-18T20:08:23;17.30;1.00
7894;DHT22;51343;51.396;6.656;2023-09-18T20:10:51;17.40;1.00
7894;DHT22;51343;51.396;6.656;2023-09-18T20:13:19;17.40;1.00
7894;DHT22;51343;51.396;6.656;2023-09-18T20:15:46;17.40;1.00
7894;DHT22;51343;51.396;6.656;2023-09-18T20:18:14;17.30;1.00
7894;DHT22;51343;51.396;6.656;2023-09-18T20:20:40;17.30;1.00
7894;DHT22;51343;51.396;6.656;2023-09-18T20:23:08;17.40;1.00
7894;DHT22;51343;51.396;6.656;2023-09-18T20:25:34;17.30;99.90
7894;DHT22;51343;51.396;6.656;2023-09-18T20:28:01;17.40;1.00
7894;DHT22;51343;51.396;6.656;2023-09-18T20:30:29;17.40;1.00
7894;DHT22;51343;51.396;6.656;2023-09-18T20:32:56;17.40;1.00
7894;DHT22;51343;51.396;6.656;2023-09-18T20:35:23;17.40;31.80
7894;DHT22;51343;51.396;6.656;2023-09-18T20:37:51;17.50;1.00
7894;DHT22;51343;51.396;6.656;2023-09-18T20:40:17;17.50;1.00
7894;DHT22;51343;51.396;6.656;2023-09-18T20:42:45;17.50;1.00
7894;DHT22;51343;51.396;6.656;2023-09-18T20:45:16;17.40;1.00
7894;DHT22;51343;51.396;6.656;2023-09-18T20:47:46;17.50;99.90
7894;DHT22;51343;51.396;6.656;2023-09-18T20:50:13;17.50;99.90
7894;DHT22;51343;51.396;6.656;2023-09-18T20:52:42;17.50;1.00
7894;DHT22;51343;51.396;6.656;2023-09-18T20:55:10;17.50;99.90
7894;DHT22;51343;51.396;6.656;2023-09-18T20:57:37;17.60;99.90
7894;DHT22;51343;51.396;6.656;2023-09-18T21:00:05;17.60;99.90
7894;DHT22;51343;51.396;6.656;2023-09-18T21:02:32;17.60;99.90
7894;DHT22;51343;51.396;6.656;2023-09-18T21:05:00;17.60;99.90
7894;DHT22;51343;51.396;6.656;2023-09-18T21:07:28;17.60;99.90
7894;DHT22;51343;51.396;6.656;2023-09-18T21:09:55;17.60;1.00
7894;DHT22;51343;51.396;6.656;2023-09-18T21:12:22;17.50;1.00
7894;DHT22;51343;51.396;6.656;2023-09-18T21:14:50;17.50;1.00
7894;DHT22;51343;51.396;6.656;2023-09-18T21:17:22;17.50;1.00
7894;DHT22;51343;51.396;6.656;2023-09-18T21:19:51;17.50;1.00
7894;DHT22;51343;51.396;6.656;2023-09-18T21:22:19;17.50;1.00
7894;DHT22;51343;51.396;6.656;2023-09-18T21:24:46;17.50;99.90
7894;DHT22;51343;51.396;6.656;2023-09-18T21:27:21;17.40;99.90
7894;DHT22;51343;51.396;6.656;2023-09-18T21:29:50;17.50;1.00
7894;DHT22;51343;51.396;6.656;2023-09-18T21:32:17;17.50;1.00
7894;DHT22;51343;51.396;6.656;2023-09-18T21:34:49;17.50;1.00
7894;DHT22;51343;51.396;6.656;2023-09-18T21:37:16;17.50;1.00
7894;DHT22;51343;51.396;6.656;2023-09-18T21:39:50;17.50;1.00
7894;DHT22;51343;51.396;6.656;2023-09-18T21:42:18;17.40;1.00
7894;DHT22;51343;51.396;6.656;2023-09-18T21:44:47;17.40;1.00
7894;DHT22;51343;51.396;6.656;2023-09-18T21:47:16;17.40;1.00
7894;DHT22;51343;51.396;6.656;2023-09-18T21:49:45;17.40;1.00
7894;DHT22;51343;51.396;6.656;2023-09-18T21:52:13;17.30;1.00
7894;DHT22;51343;51.396;6.656;2023-09-18T21:57:20;17.30;1.00
